Terminal Aerodrome Forecast
Issued by NWS

Home | Current Version | Previous Version | Text Only | Print | Product List | Glossary On
Versions: 1 2 3 4 5 6 7 8 9 10 11 12 13 14 15 16
000
FTUS42 KFFC 121132
TAFPDK
TAF
KPDK 121132Z 1212/1312 25006KT P6SM BKN200 WS020/27035KT
     FM121400 30012G20KT P6SM BKN200
     FM121700 31017G30KT P6SM BKN030
     FM122100 31017G28KT P6SM SCT030
     FM130200 31012G18KT P6SM SKC
     FM130600 31010KT P6SM SKC=

USA.gov is the U.S. government's official web portal to all federal, state and local government web resources and services.